Time;durP1;ratioP1;P1;durP2;ratioP2;P2;SDS_P1;SDS_P2;PMS_P1;PMS_P2;Temp;Humidity;BMP_temperature;BMP_pressure;BME280_temperature;BME280_humidity;BME280_pressure;Samples;Min_cycle;Max_cycle;Signal;HPM_P1;HPM_P2
2023/06/12 00:02:09;;;;;;;28.85;25.83;;;23.00;75.40;;;;;;5041999;28;20452;-78
2023/06/12 00:04:35;;;;;;;30.40;27.20;;;22.90;75.80;;;;;;5048153;28;20108;-77
2023/06/12 00:07:04;;;;;;;30.85;27.30;;;22.90;76.00;;;;;;5042323;28;20549;-78
2023/06/12 00:09:30;;;;;;;28.02;25.23;;;22.80;76.00;;;;;;5045984;28;20036;-78
2023/06/12 00:11:56;;;;;;;29.85;26.83;;;22.70;76.30;;;;;;5031580;28;20034;-77
2023/06/12 00:14:21;;;;;;;28.30;25.33;;;22.70;76.30;;;;;;5035254;28;20059;-77
2023/06/12 00:16:48;;;;;;;29.20;25.10;;;22.80;76.30;;;;;;5044806;28;20049;-78
2023/06/12 00:19:15;;;;;;;32.25;28.88;;;22.80;76.40;;;;;;5045516;28;20027;-78
2023/06/12 00:21:41;;;;;;;32.30;29.10;;;22.80;76.70;;;;;;5040485;28;20071;-78
2023/06/12 00:24:08;;;;;;;29.90;26.70;;;22.70;77.00;;;;;;5041937;28;20029;-78
2023/06/12 00:26:35;;;;;;;27.98;25.10;;;22.70;76.90;;;;;;5033045;28;20037;-78
2023/06/12 00:29:01;;;;;;;28.50;25.50;;;22.70;76.90;;;;;;5036818;28;20056;-77
2023/06/12 00:31:26;;;;;;;28.17;25.25;;;22.60;77.00;;;;;;5037998;28;20480;-78
2023/06/12 00:33:52;;;;;;;31.20;28.00;;;22.60;77.10;;;;;;5040581;28;20032;-77
2023/06/12 00:36:18;;;;;;;31.23;28.02;;;22.60;77.20;;;;;;5037970;28;20447;-78
2023/06/12 00:38:43;;;;;;;30.70;27.55;;;22.60;77.60;;;;;;5043090;28;20036;-77
2023/06/12 00:41:09;;;;;;;34.65;31.20;;;22.60;77.80;;;;;;5040759;28;20057;-78
2023/06/12 00:43:35;;;;;;;34.40;30.88;;;22.50;78.00;;;;;;5042975;28;20087;-77
2023/06/12 00:46:01;;;;;;;39.05;34.92;;;22.40;77.70;;;;;;5040209;28;20029;-77
2023/06/12 00:48:27;;;;;;;35.17;31.60;;;22.40;77.60;;;;;;5041542;28;20082;-77
2023/06/12 00:50:56;;;;;;;37.97;34.08;;;22.30;77.60;;;;;;5042208;28;20049;-77
2023/06/12 00:53:21;;;;;;;38.88;34.83;;;22.30;77.70;;;;;;5043197;28;20032;-78
2023/06/12 00:55:47;;;;;;;44.70;39.85;;;22.20;77.60;;;;;;5038774;28;20025;-78
2023/06/12 00:58:13;;;;;;;46.40;41.60;;;22.10;77.40;;;;;;5033044;28;20105;-78
2023/06/12 01:00:39;;;;;;;49.67;44.22;;;22.00;77.50;;;;;;5045613;28;20043;-77
2023/06/12 01:03:07;;;;;;;51.78;46.25;;;21.80;77.60;;;;;;5040780;28;20748;-78
2023/06/12 01:05:36;;;;;;;54.30;48.38;;;21.80;77.70;;;;;;5042406;28;20539;-78
2023/06/12 01:08:20;;;;;;;57.15;50.47;;;21.60;77.80;;;;;;5038124;28;20040;-78
2023/06/12 01:10:56;;;;;;;58.20;51.15;;;21.50;78.20;;;;;;5043873;28;20041;-78
2023/06/12 01:13:22;;;;;;;57.10;50.85;;;21.40;78.50;;;;;;5032315;28;20475;-77
2023/06/12 01:15:49;;;;;;;62.47;54.33;;;21.30;78.80;;;;;;5035939;28;20515;-77
2023/06/12 01:18:15;;;;;;;61.67;55.05;;;21.20;79.20;;;;;;5034481;28;20029;-77
2023/06/12 01:20:42;;;;;;;57.65;51.55;;;21.00;80.00;;;;;;5041749;28;20408;-76
2023/06/12 01:23:39;;;;;;;61.70;51.45;;;20.90;80.40;;;;;;5035120;28;20426;-77
2023/06/12 01:26:36;;;;;;;57.28;51.28;;;20.90;80.50;;;;;;5031083;28;20385;-77
2023/06/12 01:29:23;;;;;;;58.58;52.13;;;20.90;80.60;;;;;;5045291;28;20547;-77
2023/06/12 01:32:04;;;;;;;59.35;52.65;;;20.80;81.00;;;;;;5034761;28;20441;-77
2023/06/12 01:34:50;;;;;;;61.22;54.03;;;20.70;81.30;;;;;;5042117;28;20009;-77
2023/06/12 01:37:43;;;;;;;64.22;55.25;;;20.60;81.80;;;;;;5040594;28;20049;-77
2023/06/12 01:40:12;;;;;;;61.30;52.38;;;20.60;82.00;;;;;;5032454;28;20030;-77
2023/06/12 01:42:39;;;;;;;60.63;53.55;;;20.50;82.30;;;;;;5041987;28;20056;-77
2023/06/12 01:45:05;;;;;;;56.90;50.50;;;20.50;82.60;;;;;;5041140;28;20393;-77
2023/06/12 01:47:31;;;;;;;55.75;49.58;;;20.30;82.60;;;;;;5035154;28;20021;-79
2023/06/12 01:49:57;;;;;;;57.00;49.17;;;20.40;82.60;;;;;;5033997;28;20037;-77
2023/06/12 01:52:22;;;;;;;58.92;50.08;;;20.30;82.60;;;;;;5044493;28;20139;-78
2023/06/12 01:54:48;;;;;;;61.65;53.08;;;20.40;82.60;;;;;;5036913;28;20075;-78
2023/06/12 01:57:15;;;;;;;62.55;53.33;;;20.40;82.70;;;;;;5045178;28;20492;-77
2023/06/12 01:59:41;;;;;;;59.72;51.40;;;20.20;82.90;;;;;;5035322;28;20082;-78
2023/06/12 02:02:07;;;;;;;56.35;50.28;;;20.20;82.90;;;;;;5040697;28;20053;-77
2023/06/12 02:04:33;;;;;;;58.45;52.15;;;20.20;83.00;;;;;;5044865;28;20090;-77
2023/06/12 02:06:58;;;;;;;56.35;49.67;;;20.20;82.90;;;;;;5037731;28;20052;-77
2023/06/12 02:09:24;;;;;;;54.33;48.38;;;20.10;83.00;;;;;;5041186;28;21178;-78
2023/06/12 02:11:50;;;;;;;60.10;53.75;;;20.20;83.20;;;;;;5037041;28;20041;-77
2023/06/12 02:14:15;;;;;;;61.80;52.72;;;20.20;83.00;;;;;;5042441;28;20107;-77
2023/06/12 02:16:41;;;;;;;62.58;55.78;;;20.10;83.00;;;;;;5040280;28;20498;-77
2023/06/12 02:19:07;;;;;;;62.20;54.38;;;20.10;83.20;;;;;;5037308;28;20482;-77
2023/06/12 02:21:32;;;;;;;64.38;55.95;;;20.10;83.30;;;;;;5037714;28;20051;-77
2023/06/12 02:23:58;;;;;;;60.22;53.72;;;20.10;83.30;;;;;;5040080;28;20066;-78
2023/06/12 02:26:24;;;;;;;66.55;56.40;;;20.10;83.30;;;;;;5030187;28;20140;-78
2023/06/12 02:29:10;;;;;;;70.25;61.35;;;20.00;83.60;;;;;;5039236;28;20949;-78
2023/06/12 02:31:36;;;;;;;68.55;59.78;;;19.90;83.80;;;;;;5044252;28;20037;-77
2023/06/12 02:34:02;;;;;;;70.68;63.13;;;19.80;84.20;;;;;;5041683;28;20359;-77
2023/06/12 02:36:28;;;;;;;75.88;64.30;;;19.80;84.40;;;;;;5044020;28;20036;-78
2023/06/12 02:38:54;;;;;;;70.97;62.70;;;19.70;84.60;;;;;;5036589;28;20036;-77
2023/06/12 02:41:20;;;;;;;75.85;67.47;;;19.70;84.90;;;;;;5042364;28;20045;-77
2023/06/12 02:43:45;;;;;;;77.30;67.55;;;19.60;85.00;;;;;;5038076;28;20150;-77
2023/06/12 02:46:11;;;;;;;77.97;68.72;;;19.50;85.50;;;;;;5040802;28;20478;-76
2023/06/12 02:48:37;;;;;;;74.50;65.22;;;19.50;85.70;;;;;;5044795;28;20043;-77
2023/06/12 02:51:03;;;;;;;71.82;63.72;;;19.60;85.80;;;;;;5044165;28;20525;-77
2023/06/12 02:53:28;;;;;;;80.78;69.88;;;19.60;85.30;;;;;;5040374;28;20573;-77
2023/06/12 02:55:54;;;;;;;83.25;70.25;;;19.60;85.10;;;;;;5040793;28;20094;-76
2023/06/12 02:58:19;;;;;;;77.03;67.65;;;19.60;85.00;;;;;;5041181;28;20112;-78
2023/06/12 03:00:46;;;;;;;77.80;69.25;;;19.60;84.90;;;;;;5044207;28;20028;-77
2023/06/12 03:03:12;;;;;;;82.50;68.93;;;19.60;84.80;;;;;;5037231;28;20041;-77
2023/06/12 03:05:38;;;;;;;85.80;73.03;;;19.60;84.80;;;;;;5042805;28;20021;-77
2023/06/12 03:08:04;;;;;;;83.55;71.25;;;19.50;84.80;;;;;;5042787;28;20116;-76
2023/06/12 03:10:30;;;;;;;84.25;73.13;;;19.50;85.10;;;;;;5044715;28;20025;-77
2023/06/12 03:12:56;;;;;;;80.15;70.82;;;19.40;85.10;;;;;;5039204;28;20041;-77
2023/06/12 03:15:22;;;;;;;76.00;67.85;;;19.50;85.30;;;;;;5044163;28;20365;-77
2023/06/12 03:17:48;;;;;;;77.25;67.80;;;19.50;85.20;;;;;;5043525;28;20044;-78
2023/06/12 03:20:14;;;;;;;77.32;68.75;;;19.50;84.80;;;;;;5040286;28;20028;-77
2023/06/12 03:22:41;;;;;;;72.90;64.95;;;19.50;84.80;;;;;;5036139;28;20029;-78
2023/06/12 03:25:08;;;;;;;78.07;69.60;;;19.50;84.60;;;;;;5034463;28;20031;-78
2023/06/12 03:27:33;;;;;;;77.72;66.78;;;19.50;84.40;;;;;;5039906;28;20124;-78
2023/06/12 03:29:59;;;;;;;83.65;71.07;;;19.50;84.40;;;;;;5042506;28;20385;-76
2023/06/12 03:32:26;;;;;;;81.10;67.55;;;19.50;84.30;;;;;;5036307;28;20120;-78
2023/06/12 03:34:52;;;;;;;83.57;71.53;;;19.50;84.50;;;;;;5036518;28;20022;-77
2023/06/12 03:37:18;;;;;;;79.07;70.00;;;19.50;84.50;;;;;;5033733;28;20056;-77
2023/06/12 03:39:44;;;;;;;77.80;67.43;;;19.40;84.50;;;;;;5038950;28;20415;-78
2023/06/12 03:42:10;;;;;;;83.70;71.57;;;19.40;84.80;;;;;;5035325;28;20250;-78
2023/06/12 03:44:36;;;;;;;73.03;64.65;;;19.40;84.80;;;;;;5030994;28;20052;-79
2023/06/12 03:47:02;;;;;;;74.13;65.95;;;19.40;84.90;;;;;;5035744;28;20497;-77
2023/06/12 03:49:28;;;;;;;78.97;69.95;;;19.40;84.90;;;;;;5034896;28;20021;-77
2023/06/12 03:51:54;;;;;;;76.93;68.32;;;19.50;84.60;;;;;;5048510;28;20040;-77
2023/06/12 03:54:20;;;;;;;76.82;68.50;;;19.40;84.50;;;;;;5038431;28;20025;-76
2023/06/12 03:56:46;;;;;;;80.05;69.60;;;19.40;84.60;;;;;;5046121;28;20143;-77
2023/06/12 03:59:11;;;;;;;76.85;68.43;;;19.40;84.60;;;;;;5042144;28;20017;-78
2023/06/12 04:01:38;;;;;;;78.13;68.90;;;19.30;84.80;;;;;;5044480;28;20044;-77
2023/06/12 04:04:04;;;;;;;79.82;68.60;;;19.40;84.60;;;;;;5041893;28;20442;-77
2023/06/12 04:06:32;;;;;;;75.65;65.97;;;19.40;84.50;;;;;;5040465;28;20040;-77
2023/06/12 04:09:00;;;;;;;80.95;70.43;;;19.50;84.50;;;;;;5045750;28;20449;-77
2023/06/12 04:11:26;;;;;;;77.55;68.55;;;19.50;84.30;;;;;;5034788;28;20045;-77
2023/06/12 04:13:52;;;;;;;71.47;62.85;;;19.50;84.10;;;;;;5044338;28;20041;-77
2023/06/12 04:16:18;;;;;;;70.60;62.85;;;19.50;84.20;;;;;;5035855;28;20094;-77
2023/06/12 04:18:45;;;;;;;76.28;67.45;;;19.50;84.10;;;;;;5045457;28;20044;-77
2023/06/12 04:21:12;;;;;;;78.72;67.88;;;19.60;83.80;;;;;;5042495;28;20115;-77
2023/06/12 04:23:41;;;;;;;78.60;67.65;;;19.50;83.70;;;;;;5040290;28;20090;-77
2023/06/12 04:26:06;;;;;;;78.40;68.82;;;19.60;83.70;;;;;;5035862;28;20029;-77
2023/06/12 04:28:36;;;;;;;75.90;65.88;;;19.50;83.70;;;;;;5045073;28;20035;-77
2023/06/12 04:31:02;;;;;;;75.03;64.57;;;19.60;83.90;;;;;;5034970;28;20367;-78
2023/06/12 04:33:30;;;;;;;69.60;60.85;;;19.60;84.20;;;;;;5038705;28;20032;-77
2023/06/12 04:35:57;;;;;;;71.43;63.28;;;19.80;84.10;;;;;;5040384;28;20355;-77
2023/06/12 04:38:23;;;;;;;69.70;62.33;;;19.90;83.50;;;;;;5040868;28;20044;-77
2023/06/12 04:40:51;;;;;;;74.28;64.07;;;20.00;83.10;;;;;;5038423;28;20029;-76
2023/06/12 04:43:21;;;;;;;74.72;65.18;;;20.00;82.40;;;;;;5038870;28;20036;-77
2023/06/12 04:45:47;;;;;;;75.00;65.90;;;19.90;82.30;;;;;;5034953;28;20597;-77
2023/06/12 04:48:13;;;;;;;76.55;65.72;;;20.00;82.60;;;;;;5038076;28;20048;-77
2023/06/12 04:50:40;;;;;;;81.68;67.55;;;20.00;82.40;;;;;;5046055;28;20151;-77
2023/06/12 04:53:06;;;;;;;76.78;65.40;;;19.80;83.10;;;;;;5043631;28;20039;-77
2023/06/12 04:55:32;;;;;;;74.78;66.55;;;19.60;83.50;;;;;;5041427;28;20025;-77
2023/06/12 04:57:58;;;;;;;75.10;66.95;;;19.60;83.90;;;;;;5045219;28;20028;-77
2023/06/12 05:00:25;;;;;;;77.82;68.00;;;19.70;83.90;;;;;;5042879;28;20028;-76
2023/06/12 05:02:55;;;;;;;76.70;66.32;;;19.70;83.70;;;;;;5040218;28;20072;-74
2023/06/12 05:05:21;;;;;;;78.68;67.82;;;19.80;83.50;;;;;;5039277;28;20025;-77
2023/06/12 05:07:48;;;;;;;74.50;65.70;;;19.90;83.30;;;;;;5043839;28;20036;-76
2023/06/12 05:10:17;;;;;;;77.47;66.90;;;20.00;83.10;;;;;;5043732;28;20032;-76
2023/06/12 05:12:42;;;;;;;77.60;68.75;;;19.90;83.50;;;;;;5038939;28;20629;-77
2023/06/12 05:15:09;;;;;;;78.13;65.80;;;19.80;83.80;;;;;;5041716;28;20127;-76
2023/06/12 05:17:34;;;;;;;81.75;70.70;;;19.80;84.60;;;;;;5040288;28;20056;-76
2023/06/12 05:20:01;;;;;;;80.05;66.15;;;19.80;84.30;;;;;;5039510;28;20450;-76
2023/06/12 05:22:26;;;;;;;77.80;67.97;;;19.80;84.60;;;;;;5042785;28;20051;-77
2023/06/12 05:24:52;;;;;;;77.82;66.30;;;19.90;84.30;;;;;;5029942;28;20466;-77
2023/06/12 05:27:17;;;;;;;80.20;67.78;;;20.10;84.90;;;;;;5042742;28;20037;-76
2023/06/12 05:29:43;;;;;;;75.53;64.20;;;20.40;83.10;;;;;;5044526;28;20039;-76
2023/06/12 05:32:09;;;;;;;67.43;60.08;;;21.10;82.10;;;;;;5040921;28;20804;-77
2023/06/12 05:34:34;;;;;;;62.40;55.42;;;22.30;77.80;;;;;;5042892;28;20100;-78
2023/06/12 05:37:03;;;;;;;62.13;53.95;;;23.40;74.00;;;;;;5037544;28;20135;-75
2023/06/12 05:39:28;;;;;;;55.20;49.28;;;24.10;70.40;;;;;;5018782;28;20152;-75
2023/06/12 05:41:54;;;;;;;55.30;49.25;;;24.60;68.70;;;;;;5039695;28;20715;-75
2023/06/12 05:44:20;;;;;;;53.17;47.60;;;25.10;67.80;;;;;;5038392;28;20040;-75
2023/06/12 05:46:48;;;;;;;56.72;50.47;;;25.70;65.00;;;;;;5041078;28;20079;-75
2023/06/12 05:49:13;;;;;;;53.95;47.97;;;26.00;63.60;;;;;;5040606;28;20032;-76
2023/06/12 05:51:39;;;;;;;55.83;49.70;;;26.10;63.00;;;;;;5037511;28;20053;-76
2023/06/12 05:54:05;;;;;;;54.95;49.17;;;25.80;63.70;;;;;;5027147;28;20029;-77
2023/06/12 05:56:30;;;;;;;60.30;53.75;;;25.10;65.80;;;;;;5041025;28;20045;-76
2023/06/12 05:58:56;;;;;;;57.42;51.25;;;24.80;67.40;;;;;;5039827;28;20038;-77
2023/06/12 06:01:24;;;;;;;60.05;53.58;;;24.40;69.00;;;;;;5032152;28;20055;-77
2023/06/12 06:03:51;;;;;;;60.42;53.83;;;24.10;70.00;;;;;;5043246;28;20028;-77
2023/06/12 06:06:17;;;;;;;62.83;55.75;;;23.70;70.60;;;;;;5037681;28;20399;-77
2023/06/12 06:08:43;;;;;;;62.35;55.58;;;23.50;71.70;;;;;;5038741;28;20166;-77
2023/06/12 06:11:09;;;;;;;62.63;55.92;;;23.10;73.40;;;;;;5037247;28;20440;-77
2023/06/12 06:13:34;;;;;;;62.95;56.42;;;22.80;73.90;;;;;;5036050;28;20049;-77
2023/06/12 06:16:01;;;;;;;65.68;58.47;;;22.60;75.10;;;;;;5040679;28;20025;-76
2023/06/12 06:18:28;;;;;;;61.38;54.67;;;22.50;75.40;;;;;;5038901;28;20507;-76
2023/06/12 06:20:53;;;;;;;66.05;58.45;;;22.60;75.90;;;;;;5039486;28;20036;-77
2023/06/12 06:23:21;;;;;;;64.68;57.83;;;22.50;75.60;;;;;;5032199;28;20025;-76
2023/06/12 06:25:47;;;;;;;68.30;60.65;;;22.60;75.50;;;;;;5029837;28;20025;-77
2023/06/12 06:28:13;;;;;;;64.60;57.60;;;22.80;76.00;;;;;;5036264;28;20406;-77
2023/06/12 06:30:38;;;;;;;66.10;56.28;;;22.90;74.80;;;;;;5039364;28;20036;-77
2023/06/12 06:33:04;;;;;;;62.58;55.78;;;22.90;74.90;;;;;;5038608;28;20040;-77
2023/06/12 06:35:30;;;;;;;66.45;59.40;;;23.00;74.90;;;;;;5032925;28;20033;-77
2023/06/12 06:37:56;;;;;;;65.25;58.30;;;23.10;74.50;;;;;;5040182;28;20144;-77
2023/06/12 06:40:22;;;;;;;65.72;57.20;;;23.20;74.40;;;;;;5040420;28;20033;-77
2023/06/12 06:42:47;;;;;;;67.28;60.03;;;23.50;74.80;;;;;;5038698;28;20029;-78
2023/06/12 06:45:13;;;;;;;64.18;57.30;;;23.50;73.00;;;;;;5039292;28;20029;-77
2023/06/12 06:47:39;;;;;;;61.13;54.72;;;23.60;74.10;;;;;;5036154;28;20029;-76
2023/06/12 06:50:05;;;;;;;61.05;54.55;;;23.80;72.60;;;;;;5037502;28;20021;-76
2023/06/12 06:52:31;;;;;;;67.63;56.72;;;23.90;72.90;;;;;;5035876;28;20032;-76
2023/06/12 06:54:57;;;;;;;61.67;55.08;;;23.90;72.60;;;;;;5039135;28;20028;-76
2023/06/12 06:57:23;;;;;;;67.18;59.63;;;23.90;73.10;;;;;;5042302;28;20500;-79
2023/06/12 06:59:48;;;;;;;63.67;57.00;;;24.10;72.30;;;;;;5041191;28;20440;-77
2023/06/12 07:02:14;;;;;;;63.85;57.10;;;24.30;71.80;;;;;;5040814;28;20436;-78
2023/06/12 07:04:40;;;;;;;65.00;57.97;;;24.40;71.20;;;;;;5042146;28;20098;-78
2023/06/12 07:07:06;;;;;;;59.65;53.22;;;24.50;70.10;;;;;;5040846;28;20044;-76
2023/06/12 07:09:32;;;;;;;57.70;51.15;;;24.30;70.70;;;;;;5040907;28;20776;-78
2023/06/12 07:11:58;;;;;;;61.75;55.03;;;24.50;70.00;;;;;;5032837;28;20042;-78
2023/06/12 07:14:23;;;;;;;58.22;52.10;;;24.60;69.60;;;;;;5038062;28;20045;-76
2023/06/12 07:16:49;;;;;;;59.17;52.97;;;24.60;69.60;;;;;;5038230;28;20175;-78
2023/06/12 07:19:15;;;;;;;58.30;51.97;;;24.80;69.00;;;;;;5039667;28;20032;-79
2023/06/12 07:21:41;;;;;;;57.42;51.38;;;25.00;69.10;;;;;;5037379;28;20037;-79
2023/06/12 07:24:06;;;;;;;57.10;50.55;;;25.10;68.40;;;;;;5041635;28;20033;-78
2023/06/12 07:26:32;;;;;;;59.10;52.85;;;25.30;69.30;;;;;;5040723;28;20409;-79
2023/06/12 07:28:58;;;;;;;52.15;46.60;;;25.30;67.90;;;;;;5043457;28;20120;-78
2023/06/12 07:31:24;;;;;;;55.30;49.30;;;25.30;65.90;;;;;;5041736;28;20041;-78
2023/06/12 07:33:50;;;;;;;53.80;48.35;;;25.30;66.40;;;;;;5030372;28;20514;-78
2023/06/12 07:36:16;;;;;;;59.10;52.90;;;25.50;66.70;;;;;;5039515;28;20529;-77
2023/06/12 07:38:43;;;;;;;56.78;50.78;;;25.60;66.90;;;;;;5042804;28;20021;-78
2023/06/12 07:41:09;;;;;;;49.55;44.53;;;25.50;67.90;;;;;;5038273;28;20443;-78
2023/06/12 07:43:35;;;;;;;49.75;44.70;;;25.60;67.30;;;;;;5037329;28;20025;-78
2023/06/12 07:46:01;;;;;;;49.90;44.72;;;25.50;66.20;;;;;;5039434;28;20018;-78
2023/06/12 07:48:27;;;;;;;49.72;44.38;;;25.60;66.00;;;;;;5045229;28;20025;-79
2023/06/12 07:50:53;;;;;;;50.03;44.83;;;25.60;65.20;;;;;;5042462;28;20166;-78
2023/06/12 07:53:19;;;;;;;50.17;44.85;;;25.50;64.70;;;;;;5034213;28;20515;-78
2023/06/12 07:55:44;;;;;;;47.17;42.33;;;25.70;64.20;;;;;;5046400;28;20112;-79
2023/06/12 07:58:10;;;;;;;48.72;43.85;;;25.90;64.20;;;;;;5042958;28;20038;-79
2023/06/12 08:00:36;;;;;;;48.13;43.03;;;26.10;63.40;;;;;;5043173;28;20036;-77
2023/06/12 08:03:03;;;;;;;43.70;38.92;;;26.30;62.70;;;;;;5047883;28;20527;-80
2023/06/12 08:05:29;;;;;;;44.95;40.33;;;26.60;63.10;;;;;;5041930;28;20036;-79
2023/06/12 08:07:55;;;;;;;47.65;42.70;;;26.90;61.60;;;;;;5040940;28;20116;-75
2023/06/12 08:10:21;;;;;;;50.28;45.17;;;27.00;61.70;;;;;;5042902;28;20112;-76
2023/06/12 08:12:47;;;;;;;42.72;38.42;;;26.90;61.10;;;;;;5042037;28;20069;-75
2023/06/12 08:15:13;;;;;;;39.47;35.33;;;26.70;60.20;;;;;;5045757;28;20032;-77
2023/06/12 08:17:42;;;;;;;40.95;36.75;;;26.90;61.10;;;;;;5039171;28;20036;-80
2023/06/12 08:20:09;;;;;;;35.13;31.67;;;27.00;60.20;;;;;;5033384;28;20075;-77
2023/06/12 08:22:36;;;;;;;29.40;26.27;;;27.30;59.50;;;;;;5035826;28;20045;-79
2023/06/12 08:25:06;;;;;;;29.17;24.80;;;27.20;56.80;;;;;;5035164;28;20037;-77
2023/06/12 08:27:33;;;;;;;26.90;24.00;;;27.40;54.80;;;;;;5040659;28;20029;-78
2023/06/12 08:29:59;;;;;;;30.25;27.35;;;27.70;56.10;;;;;;5047126;28;20031;-77
2023/06/12 08:32:26;;;;;;;31.30;28.05;;;28.00;55.40;;;;;;5042614;28;20492;-78
2023/06/12 08:34:51;;;;;;;30.52;27.42;;;27.80;54.20;;;;;;5034437;28;20037;-77
2023/06/12 08:37:20;;;;;;;26.25;22.60;;;28.10;55.20;;;;;;5041565;28;20098;-77
2023/06/12 08:39:46;;;;;;;28.55;25.60;;;28.40;55.10;;;;;;5042320;28;20029;-76
2023/06/12 08:42:16;;;;;;;28.65;24.33;;;28.00;53.20;;;;;;5043748;28;20041;-77
2023/06/12 08:44:46;;;;;;;26.70;23.92;;;27.80;54.60;;;;;;5042352;28;20463;-77
2023/06/12 08:47:15;;;;;;;28.58;25.55;;;28.10;54.10;;;;;;5039715;28;20037;-78
2023/06/12 08:49:42;;;;;;;24.75;22.15;;;28.20;53.30;;;;;;5044758;28;20039;-78
2023/06/12 08:52:10;;;;;;;23.58;21.27;;;27.80;53.20;;;;;;5039703;28;20072;-78
2023/06/12 08:54:45;;;;;;;21.92;19.60;;;28.00;54.20;;;;;;5046173;28;20523;-78
2023/06/12 08:57:11;;;;;;;24.52;22.08;;;28.20;51.60;;;;;;5043405;28;20037;-77
2023/06/12 08:59:37;;;;;;;23.60;21.02;;;28.30;51.70;;;;;;5038397;28;20051;-77
2023/06/12 09:02:08;;;;;;;21.23;19.13;;;28.40;51.20;;;;;;5040427;28;20136;-76
2023/06/12 09:04:44;;;;;;;20.58;18.55;;;28.30;51.40;;;;;;5041039;28;20351;-77
2023/06/12 09:07:12;;;;;;;19.60;17.55;;;28.50;51.90;;;;;;5034678;28;20037;-78
2023/06/12 09:09:39;;;;;;;16.88;14.35;;;28.60;50.00;;;;;;5042705;28;20158;-78
2023/06/12 09:12:09;;;;;;;18.00;15.38;;;28.60;49.40;;;;;;5038410;28;20040;-78
2023/06/12 09:14:35;;;;;;;14.73;10.80;;;28.70;48.40;;;;;;5040716;28;20525;-77
2023/06/12 09:17:06;;;;;;;14.05;11.45;;;28.80;46.60;;;;;;5044596;28;20041;-76
2023/06/12 09:19:50;;;;;;;13.95;11.27;;;29.30;47.70;;;;;;5040300;28;20068;-76
2023/06/12 09:22:16;;;;;;;;;;;29.50;43.50;;;;;;5040565;28;20170;-76
2023/06/12 09:24:42;;;;;;;11.68;10.18;;;29.20;43.40;;;;;;5036537;28;21135;-76
2023/06/12 09:27:08;;;;;;;17.13;11.05;;;29.30;43.60;;;;;;5041166;28;20060;-77
2023/06/12 09:29:39;;;;;;;12.52;10.10;;;29.50;42.60;;;;;;5040719;28;20492;-76
2023/06/12 09:32:07;;;;;;;13.23;8.93;;;29.80;42.00;;;;;;5053781;28;20068;-77
2023/06/12 09:34:34;;;;;;;13.27;9.32;;;29.90;40.90;;;;;;5059978;28;20059;-79
2023/06/12 09:37:01;;;;;;;11.25;8.82;;;30.00;40.50;;;;;;5039166;28;20275;-77
2023/06/12 09:39:30;;;;;;;12.25;9.52;;;29.70;39.60;;;;;;5038894;28;20040;-78
2023/06/12 09:41:57;;;;;;;12.77;8.73;;;29.70;40.30;;;;;;5044221;28;20059;-77
2023/06/12 09:44:30;;;;;;;11.23;7.63;;;29.80;38.10;;;;;;5039911;28;20029;-78
2023/06/12 09:47:05;;;;;;;10.52;7.80;;;30.00;39.40;;;;;;5038380;28;20365;-78
2023/06/12 09:49:32;;;;;;;14.88;7.35;;;30.40;37.30;;;;;;5041705;28;20028;-79
2023/06/12 09:52:04;;;;;;;9.90;6.97;;;29.90;36.60;;;;;;5036410;28;20064;-80
2023/06/12 09:54:33;;;;;;;11.45;7.60;;;30.10;36.90;;;;;;5039359;28;20056;-80
2023/06/12 09:57:04;;;;;;;9.45;7.78;;;30.50;36.00;;;;;;5040731;28;20029;-81
2023/06/12 09:59:32;;;;;;;9.65;7.70;;;30.90;35.70;;;;;;5043321;28;20132;-79
2023/06/12 10:02:08;;;;;;;9.43;7.10;;;31.00;34.00;;;;;;5039930;28;20041;-80
2023/06/12 10:04:51;;;;;;;9.70;7.10;;;31.10;35.50;;;;;;5041673;28;20516;-79
2023/06/12 10:07:25;;;;;;;14.07;7.30;;;31.50;34.20;;;;;;5040280;28;20041;-78
2023/06/12 10:09:51;;;;;;;10.27;7.45;;;31.60;34.50;;;;;;5046763;28;20131;-80
2023/06/12 10:12:17;;;;;;;11.68;7.20;;;31.30;32.40;;;;;;5042418;28;20142;-79
2023/06/12 10:14:44;;;;;;;11.02;6.90;;;31.20;33.90;;;;;;5033086;28;20049;-79
2023/06/12 10:17:10;;;;;;;9.95;7.15;;;31.50;33.90;;;;;;5041495;28;20497;-77
2023/06/12 10:19:40;;;;;;;9.65;6.88;;;31.80;32.10;;;;;;5034235;28;20386;-77
2023/06/12 10:22:07;;;;;;;9.38;6.80;;;31.50;32.30;;;;;;5041737;28;20515;-77
2023/06/12 10:24:34;;;;;;;14.60;7.75;;;31.70;32.50;;;;;;5042142;28;20056;-78
2023/06/12 10:27:00;;;;;;;9.05;6.63;;;31.10;31.40;;;;;;5035957;28;20509;-77
2023/06/12 10:29:32;;;;;;;10.55;6.70;;;31.20;31.80;;;;;;5039865;28;20102;-79
2023/06/12 10:32:08;;;;;;;10.68;7.15;;;31.40;32.20;;;;;;5036200;28;20111;-78
2023/06/12 10:34:35;;;;;;;11.32;7.28;;;31.90;32.10;;;;;;5033504;28;20036;-78
2023/06/12 10:37:23;;;;;;;10.50;6.07;;;32.10;32.60;;;;;;5040662;28;20038;-78
2023/06/12 10:40:09;;;;;;;12.90;7.55;;;32.50;30.90;;;;;;5042812;28;20134;-78
2023/06/12 10:42:54;;;;;;;10.18;7.07;;;32.10;29.90;;;;;;5035716;28;20037;-78
2023/06/12 10:45:22;;;;;;;11.18;6.45;;;31.90;30.40;;;;;;5038242;28;20032;-79
2023/06/12 10:48:06;;;;;;;10.85;6.40;;;32.10;30.50;;;;;;5027928;28;20378;-76
2023/06/12 10:50:32;;;;;;;;;;;32.20;30.40;;;;;;5034041;28;20040;-77
2023/06/12 10:53:05;;;;;;;9.05;6.28;;;32.60;29.90;;;;;;5043660;28;19917;-78
2023/06/12 10:55:32;;;;;;;11.23;6.57;;;32.00;29.70;;;;;;5035581;28;20037;-78
2023/06/12 10:58:12;;;;;;;8.68;6.40;;;32.10;29.60;;;;;;5032707;28;20095;-77
2023/06/12 11:00:45;;;;;;;9.80;6.75;;;32.20;30.30;;;;;;5042523;28;20476;-77
2023/06/12 11:03:33;;;;;;;9.32;6.22;;;32.20;29.10;;;;;;5044575;28;20060;-77
2023/06/12 11:06:15;;;;;;;8.55;6.95;;;32.20;29.70;;;;;;5032529;28;20493;-78
2023/06/12 11:08:41;;;;;;;9.10;6.35;;;31.90;29.80;;;;;;5034084;28;20021;-77
2023/06/12 11:11:11;;;;;;;9.23;6.45;;;32.00;29.00;;;;;;5029357;28;20029;-77
2023/06/12 11:13:45;;;;;;;9.27;5.55;;;31.70;29.40;;;;;;5042743;28;20117;-79
2023/06/12 11:16:17;;;;;;;9.10;5.95;;;32.30;28.10;;;;;;5038186;28;20029;-77
2023/06/12 11:18:43;;;;;;;8.88;6.03;;;32.00;28.20;;;;;;5043993;28;20032;-78
2023/06/12 11:21:10;;;;;;;9.40;6.00;;;32.20;28.80;;;;;;5041842;28;20040;-77
2023/06/12 11:23:40;;;;;;;8.85;6.20;;;32.40;27.10;;;;;;5039413;28;20029;-78
2023/06/12 11:26:07;;;;;;;9.18;6.80;;;32.70;27.60;;;;;;5041408;28;20028;-77
2023/06/12 11:28:33;;;;;;;9.02;6.38;;;32.70;27.90;;;;;;5046469;28;20078;-77
2023/06/12 11:31:01;;;;;;;10.43;6.53;;;32.80;28.20;;;;;;5037416;28;20474;-77
2023/06/12 11:33:27;;;;;;;8.60;6.82;;;33.00;27.80;;;;;;5033916;28;20030;-77
2023/06/12 11:35:58;;;;;;;8.65;6.72;;;32.50;28.40;;;;;;5037504;28;20051;-79
2023/06/12 11:38:24;;;;;;;9.07;6.25;;;32.50;28.20;;;;;;5038990;28;20462;-78
2023/06/12 11:40:53;;;;;;;11.43;6.70;;;32.90;28.40;;;;;;5041877;28;20033;-78
2023/06/12 11:43:23;;;;;;;12.63;7.10;;;33.40;28.60;;;;;;5038546;28;20028;-79
2023/06/12 11:45:52;;;;;;;10.32;6.78;;;33.50;27.80;;;;;;5034893;28;20025;-78
2023/06/12 11:48:20;;;;;;;10.07;6.53;;;33.10;27.60;;;;;;5037242;28;20545;-78
2023/06/12 11:50:50;;;;;;;11.02;6.85;;;32.80;28.00;;;;;;5045057;28;20029;-78
2023/06/12 11:53:17;;;;;;;8.52;5.78;;;32.80;28.40;;;;;;5045121;28;20033;-77
2023/06/12 11:55:46;;;;;;;13.95;6.78;;;33.10;27.80;;;;;;5040791;28;20013;-78
2023/06/12 11:58:12;;;;;;;7.78;5.82;;;33.60;27.40;;;;;;5044014;28;20025;-79
2023/06/12 12:00:40;;;;;;;9.10;5.68;;;33.50;27.00;;;;;;5042500;28;20067;-79
2023/06/12 12:03:09;;;;;;;10.45;5.90;;;33.50;27.30;;;;;;5037187;28;20555;-79
2023/06/12 12:05:37;;;;;;;11.73;6.43;;;33.70;27.30;;;;;;5040830;28;20132;-79
2023/06/12 12:08:04;;;;;;;10.55;5.65;;;33.60;26.70;;;;;;5033255;28;20030;-83
2023/06/12 12:10:39;;;;;;;12.07;6.40;;;33.60;27.00;;;;;;5041118;28;20025;-79
2023/06/12 12:13:05;;;;;;;13.40;5.38;;;33.70;26.40;;;;;;5034125;28;20077;-78
2023/06/12 12:15:37;;;;;;;8.98;4.80;;;33.80;26.50;;;;;;5036695;28;20025;-77
2023/06/12 12:18:03;;;;;;;7.82;5.25;;;33.10;23.80;;;;;;5043453;28;20045;-79
2023/06/12 12:20:30;;;;;;;9.07;4.93;;;32.60;24.30;;;;;;5040874;28;20056;-81
2023/06/12 12:22:58;;;;;;;8.57;5.75;;;32.60;24.50;;;;;;5045863;28;20124;-79
2023/06/12 12:25:29;;;;;;;9.70;5.72;;;32.60;24.80;;;;;;5043254;28;20025;-80
2023/06/12 12:27:59;;;;;;;8.38;5.30;;;32.90;25.00;;;;;;5040565;28;20534;-79
2023/06/12 12:30:26;;;;;;;10.70;5.80;;;33.00;23.50;;;;;;5035779;28;20461;-79
2023/06/12 12:32:54;;;;;;;8.82;5.13;;;33.50;22.70;;;;;;5037283;28;20041;-79
2023/06/12 12:35:21;;;;;;;9.23;4.72;;;33.40;24.00;;;;;;5040472;28;20037;-78